TimeMST,TemperatureF,Dew PointF,Humidity,Sea Level PressureIn,VisibilityMPH,Wind Direction,Wind SpeedMPH,Gust SpeedMPH,PrecipitationIn,Events,Conditions,WindDirDegrees,DateUTC
12:53 AM,12.9,-0.0,56,30.35,10.0,WSW,15.0,-,N/A,,Clear,250,2013-01-04 07:53:00
1:53 AM,14.0,1.0,56,30.34,10.0,WSW,15.0,-,N/A,,Clear,250,2013-01-04 08:53:00
2:53 AM,14.0,1.0,56,30.32,10.0,West,15.0,-,N/A,,Clear,260,2013-01-04 09:53:00
3:53 AM,14.0,1.0,56,30.32,10.0,West,16.1,-,N/A,,Clear,260,2013-01-04 10:53:00
4:53 AM,12.9,1.0,59,30.33,10.0,WSW,16.1,-,N/A,,Clear,250,2013-01-04 11:53:00
5:53 AM,14.0,1.0,56,30.33,10.0,West,18.4,-,N/A,,Clear,260,2013-01-04 12:53:00
6:53 AM,15.1,1.0,54,30.33,10.0,West,16.1,-,N/A,,Clear,260,2013-01-04 13:53:00
7:53 AM,18.0,1.9,50,30.30,10.0,West,15.0,-,N/A,,Clear,270,2013-01-04 14:53:00
8:53 AM,19.0,3.0,50,30.32,10.0,West,16.1,-,N/A,,Clear,260,2013-01-04 15:53:00
9:53 AM,21.0,6.1,53,30.33,10.0,West,11.5,-,N/A,,Clear,260,2013-01-04 16:53:00
10:53 AM,25.0,10.0,53,30.30,10.0,West,11.5,-,N/A,,Clear,260,2013-01-04 17:53:00
11:53 AM,28.9,10.9,47,30.23,10.0,West,11.5,-,N/A,,Clear,270,2013-01-04 18:53:00
12:53 PM,30.9,14.0,50,30.20,10.0,WNW,8.1,-,N/A,,Clear,300,2013-01-04 19:53:00
1:53 PM,33.1,16.0,50,30.16,10.0,WNW,3.5,-,N/A,,Clear,290,2013-01-04 20:53:00
2:53 PM,32.0,15.1,50,30.15,10.0,NW,3.5,-,N/A,,Clear,310,2013-01-04 21:53:00
3:53 PM,28.9,14.0,54,30.16,10.0,SW,4.6,-,N/A,,Clear,220,2013-01-04 22:53:00
4:53 PM,26.1,12.0,55,30.17,10.0,SW,3.5,-,N/A,,Clear,230,2013-01-04 23:53:00
5:53 PM,26.1,8.1,47,30.17,10.0,SE,4.6,-,N/A,,Clear,130,2013-01-05 00:53:00
6:53 PM,23.0,7.0,50,30.18,10.0,South,6.9,-,N/A,,Clear,190,2013-01-05 01:53:00
7:53 PM,21.9,6.1,51,30.17,10.0,SSW,8.1,-,N/A,,Clear,210,2013-01-05 02:53:00
8:53 PM,19.0,3.9,52,30.17,10.0,West,10.4,-,N/A,,Clear,270,2013-01-05 03:53:00
9:53 PM,19.0,6.1,57,30.17,10.0,West,10.4,-,N/A,,Clear,270,2013-01-05 04:53:00
10:53 PM,19.0,6.1,57,30.15,10.0,West,15.0,-,N/A,,Clear,270,2013-01-05 05:53:00
11:53 PM,19.0,10.0,68,30.12,10.0,WNW,15.0,-,N/A,,Clear,300,2013-01-05 06:53:00